sensor_id;sensor_type;location;lat;lon;timestamp;temperature;humidity
31455;DHT22;18084;53.028;8.834;2023-05-10T07:03:06;13.20;99.90
31455;DHT22;18084;53.028;8.834;2023-05-10T07:05:32;12.00;99.90
31455;DHT22;18084;53.028;8.834;2023-05-10T07:07:57;12.10;99.90
31455;DHT22;18084;53.028;8.834;2023-05-10T07:10:23;12.10;99.90
31455;DHT22;18084;53.028;8.834;2023-05-10T07:12:48;12.20;99.90
31455;DHT22;18084;53.028;8.834;2023-05-10T07:15:14;12.20;99.90
31455;DHT22;18084;53.028;8.834;2023-05-10T07:17:41;12.20;99.90
31455;DHT22;18084;53.028;8.834;2023-05-10T07:20:06;12.20;99.90
31455;DHT22;18084;53.028;8.834;2023-05-10T07:22:32;12.10;99.90
31455;DHT22;18084;53.028;8.834;2023-05-10T07:24:58;12.20;99.90
31455;DHT22;18084;53.028;8.834;2023-05-10T07:27:23;12.10;99.90
31455;DHT22;18084;53.028;8.834;2023-05-10T07:29:49;12.20;99.90
31455;DHT22;18084;53.028;8.834;2023-05-10T07:32:14;12.20;99.90
31455;DHT22;18084;53.028;8.834;2023-05-10T07:34:40;12.20;99.90
31455;DHT22;18084;53.028;8.834;2023-05-10T07:37:05;12.20;99.90
31455;DHT22;18084;53.028;8.834;2023-05-10T07:39:31;12.20;99.90
31455;DHT22;18084;53.028;8.834;2023-05-10T07:41:57;12.20;99.90
31455;DHT22;18084;53.028;8.834;2023-05-10T07:44:22;12.20;99.90
31455;DHT22;18084;53.028;8.834;2023-05-10T07:46:48;12.30;99.90
31455;DHT22;18084;53.028;8.834;2023-05-10T07:49:14;12.50;99.90
31455;DHT22;18084;53.028;8.834;2023-05-10T07:51:39;12.70;99.90
31455;DHT22;18084;53.028;8.834;2023-05-10T07:54:05;12.90;99.90
31455;DHT22;18084;53.028;8.834;2023-05-10T07:56:31;12.90;99.90
31455;DHT22;18084;53.028;8.834;2023-05-10T07:59:01;13.00;99.90
31455;DHT22;18084;53.028;8.834;2023-05-10T08:01:31;13.20;99.90
31455;DHT22;18084;53.028;8.834;2023-05-10T08:03:57;13.40;99.90
31455;DHT22;18084;53.028;8.834;2023-05-10T08:06:23;13.40;99.90
31455;DHT22;18084;53.028;8.834;2023-05-10T08:08:49;13.50;99.90
31455;DHT22;18084;53.028;8.834;2023-05-10T08:11:16;13.60;99.90
31455;DHT22;18084;53.028;8.834;2023-05-10T08:13:43;13.70;99.90
31455;DHT22;18084;53.028;8.834;2023-05-10T08:16:08;13.90;99.90
31455;DHT22;18084;53.028;8.834;2023-05-10T08:18:34;14.00;99.90
31455;DHT22;18084;53.028;8.834;2023-05-10T08:20:59;14.00;99.90
31455;DHT22;18084;53.028;8.834;2023-05-10T08:23:25;14.00;99.90
31455;DHT22;18084;53.028;8.834;2023-05-10T08:25:51;14.00;99.90
31455;DHT22;18084;53.028;8.834;2023-05-10T08:28:16;14.10;99.90
31455;DHT22;18084;53.028;8.834;2023-05-10T08:30:42;14.20;99.90
31455;DHT22;18084;53.028;8.834;2023-05-10T08:33:07;14.30;99.90
31455;DHT22;18084;53.028;8.834;2023-05-10T08:35:33;14.30;99.90
31455;DHT22;18084;53.028;8.834;2023-05-10T08:38:00;14.50;99.90
31455;DHT22;18084;53.028;8.834;2023-05-10T08:40:25;14.60;99.90
31455;DHT22;18084;53.028;8.834;2023-05-10T08:43:04;14.80;99.90
31455;DHT22;18084;53.028;8.834;2023-05-10T08:45:34;14.90;99.90
31455;DHT22;18084;53.028;8.834;2023-05-10T08:48:02;15.00;99.90
31455;DHT22;18084;53.028;8.834;2023-05-10T08:50:27;15.00;99.90
31455;DHT22;18084;53.028;8.834;2023-05-10T08:52:59;14.90;99.90
31455;DHT22;18084;53.028;8.834;2023-05-10T08:55:25;14.90;99.90
31455;DHT22;18084;53.028;8.834;2023-05-10T08:57:51;15.00;99.90
31455;DHT22;18084;53.028;8.834;2023-05-10T09:00:17;15.00;99.90
31455;DHT22;18084;53.028;8.834;2023-05-10T09:02:43;15.10;99.90
31455;DHT22;18084;53.028;8.834;2023-05-10T09:05:11;15.20;99.90
31455;DHT22;18084;53.028;8.834;2023-05-10T09:07:37;15.50;99.90
31455;DHT22;18084;53.028;8.834;2023-05-10T09:10:07;16.00;99.90
31455;DHT22;18084;53.028;8.834;2023-05-10T09:12:34;16.10;99.90
31455;DHT22;18084;53.028;8.834;2023-05-10T09:15:00;16.30;99.90
31455;DHT22;18084;53.028;8.834;2023-05-10T09:17:27;16.30;99.90
31455;DHT22;18084;53.028;8.834;2023-05-10T09:20:01;16.20;99.90
31455;DHT22;18084;53.028;8.834;2023-05-10T09:22:28;16.10;99.90
31455;DHT22;18084;53.028;8.834;2023-05-10T09:25:06;16.20;99.90
31455;DHT22;18084;53.028;8.834;2023-05-10T09:27:32;16.20;99.90
31455;DHT22;18084;53.028;8.834;2023-05-10T09:29:58;16.20;99.90
31455;DHT22;18084;53.028;8.834;2023-05-10T09:35:16;16.00;99.90
31455;DHT22;18084;53.028;8.834;2023-05-10T09:37:44;15.80;99.90
31455;DHT22;18084;53.028;8.834;2023-05-10T09:40:18;15.70;99.90
31455;DHT22;18084;53.028;8.834;2023-05-10T09:42:55;15.70;99.90
31455;DHT22;18084;53.028;8.834;2023-05-10T09:45:22;15.70;99.90
31455;DHT22;18084;53.028;8.834;2023-05-10T09:47:48;15.80;99.90
31455;DHT22;18084;53.028;8.834;2023-05-10T09:50:14;15.90;99.90
31455;DHT22;18084;53.028;8.834;2023-05-10T09:55:23;16.30;99.90
31455;DHT22;18084;53.028;8.834;2023-05-10T09:57:58;16.10;99.90
31455;DHT22;18084;53.028;8.834;2023-05-10T10:00:24;16.10;99.90
31455;DHT22;18084;53.028;8.834;2023-05-10T10:02:57;15.80;99.90
31455;DHT22;18084;53.028;8.834;2023-05-10T10:05:28;15.80;99.90
31455;DHT22;18084;53.028;8.834;2023-05-10T10:07:56;15.70;99.90
31455;DHT22;18084;53.028;8.834;2023-05-10T10:10:21;15.90;99.90
31455;DHT22;18084;53.028;8.834;2023-05-10T10:12:47;16.10;99.90
31455;DHT22;18084;53.028;8.834;2023-05-10T10:15:13;16.20;99.90
31455;DHT22;18084;53.028;8.834;2023-05-10T10:17:38;16.10;99.90
31455;DHT22;18084;53.028;8.834;2023-05-10T10:20:05;16.00;99.90
31455;DHT22;18084;53.028;8.834;2023-05-10T10:22:31;15.60;99.90
31455;DHT22;18084;53.028;8.834;2023-05-10T10:24:57;15.50;99.90
31455;DHT22;18084;53.028;8.834;2023-05-10T10:27:32;15.50;99.90
31455;DHT22;18084;53.028;8.834;2023-05-10T10:30:07;15.60;99.90
31455;DHT22;18084;53.028;8.834;2023-05-10T10:35:20;15.60;99.90
31455;DHT22;18084;53.028;8.834;2023-05-10T10:37:47;15.70;99.90
31455;DHT22;18084;53.028;8.834;2023-05-10T10:40:29;16.30;99.90
31455;DHT22;18084;53.028;8.834;2023-05-10T10:42:56;16.80;99.90
31455;DHT22;18084;53.028;8.834;2023-05-10T10:45:25;17.10;99.90
31455;DHT22;18084;53.028;8.834;2023-05-10T10:48:24;16.80;99.90
31455;DHT22;18084;53.028;8.834;2023-05-10T10:50:56;16.50;99.90
31455;DHT22;18084;53.028;8.834;2023-05-10T10:53:26;16.30;99.90
31455;DHT22;18084;53.028;8.834;2023-05-10T10:56:05;16.10;99.90
31455;DHT22;18084;53.028;8.834;2023-05-10T10:58:32;16.10;99.90
31455;DHT22;18084;53.028;8.834;2023-05-10T11:01:08;16.10;99.90
31455;DHT22;18084;53.028;8.834;2023-05-10T11:03:34;16.10;99.90
31455;DHT22;18084;53.028;8.834;2023-05-10T11:05:59;16.20;99.90
31455;DHT22;18084;53.028;8.834;2023-05-10T11:08:31;16.20;99.90
31455;DHT22;18084;53.028;8.834;2023-05-10T11:15:59;16.50;99.90
31455;DHT22;18084;53.028;8.834;2023-05-10T11:21:04;16.90;99.90
31455;DHT22;18084;53.028;8.834;2023-05-10T11:26:08;16.80;99.90
31455;DHT22;18084;53.028;8.834;2023-05-10T11:28:47;16.80;99.90
31455;DHT22;18084;53.028;8.834;2023-05-10T11:31:14;17.00;99.90
31455;DHT22;18084;53.028;8.834;2023-05-10T11:36:18;17.40;99.90
31455;DHT22;18084;53.028;8.834;2023-05-10T11:38:44;17.70;93.70
31455;DHT22;18084;53.028;8.834;2023-05-10T11:41:11;17.80;98.70
31455;DHT22;18084;53.028;8.834;2023-05-10T11:43:39;17.90;96.40
31455;DHT22;18084;53.028;8.834;2023-05-10T11:46:10;17.80;65.70
31455;DHT22;18084;53.028;8.834;2023-05-10T11:48:42;17.70;20.10
31455;DHT22;18084;53.028;8.834;2023-05-10T11:51:08;17.40;49.10
31455;DHT22;18084;53.028;8.834;2023-05-10T11:53:34;17.20;73.30
31455;DHT22;18084;53.028;8.834;2023-05-10T11:56:07;17.30;58.20
31455;DHT22;18084;53.028;8.834;2023-05-10T11:58:35;17.30;46.30
31455;DHT22;18084;53.028;8.834;2023-05-10T12:01:01;17.40;48.30
31455;DHT22;18084;53.028;8.834;2023-05-10T12:03:28;17.30;48.70
31455;DHT22;18084;53.028;8.834;2023-05-10T12:05:54;16.90;62.40
31455;DHT22;18084;53.028;8.834;2023-05-10T12:08:22;16.40;99.90
31455;DHT22;18084;53.028;8.834;2023-05-10T12:10:47;16.20;99.90
31455;DHT22;18084;53.028;8.834;2023-05-10T12:13:13;15.70;99.90
31455;DHT22;18084;53.028;8.834;2023-05-10T12:15:39;15.50;99.90
31455;DHT22;18084;53.028;8.834;2023-05-10T12:18:05;15.50;99.90
31455;DHT22;18084;53.028;8.834;2023-05-10T12:20:31;15.70;99.90
31455;DHT22;18084;53.028;8.834;2023-05-10T12:22:58;15.80;99.90
31455;DHT22;18084;53.028;8.834;2023-05-10T12:25:29;15.80;99.90
31455;DHT22;18084;53.028;8.834;2023-05-10T12:27:57;15.80;99.90
31455;DHT22;18084;53.028;8.834;2023-05-10T12:30:24;15.80;99.90
31455;DHT22;18084;53.028;8.834;2023-05-10T12:32:51;16.10;99.90
31455;DHT22;18084;53.028;8.834;2023-05-10T12:35:17;15.90;99.90
31455;DHT22;18084;53.028;8.834;2023-05-10T12:37:47;16.00;99.90
31455;DHT22;18084;53.028;8.834;2023-05-10T12:40:13;16.10;99.90
31455;DHT22;18084;53.028;8.834;2023-05-10T12:42:39;16.10;99.90
31455;DHT22;18084;53.028;8.834;2023-05-10T12:45:06;16.30;99.90
31455;DHT22;18084;53.028;8.834;2023-05-10T12:47:33;16.30;99.90
31455;DHT22;18084;53.028;8.834;2023-05-10T12:50:00;16.20;99.90
31455;DHT22;18084;53.028;8.834;2023-05-10T12:52:27;16.20;99.90
31455;DHT22;18084;53.028;8.834;2023-05-10T12:54:53;16.30;99.90
31455;DHT22;18084;53.028;8.834;2023-05-10T12:57:19;16.90;99.90
31455;DHT22;18084;53.028;8.834;2023-05-10T12:59:45;16.40;99.90
31455;DHT22;18084;53.028;8.834;2023-05-10T13:02:12;16.50;99.90
31455;DHT22;18084;53.028;8.834;2023-05-10T13:04:38;16.60;93.20
31455;DHT22;18084;53.028;8.834;2023-05-10T13:07:07;16.60;81.00
31455;DHT22;18084;53.028;8.834;2023-05-10T13:09:34;16.70;66.40
31455;DHT22;18084;53.028;8.834;2023-05-10T13:12:01;16.60;57.90
31455;DHT22;18084;53.028;8.834;2023-05-10T13:14:27;16.60;62.50
31455;DHT22;18084;53.028;8.834;2023-05-10T13:16:52;16.80;90.40
31455;DHT22;18084;53.028;8.834;2023-05-10T13:19:18;16.70;56.90
31455;DHT22;18084;53.028;8.834;2023-05-10T13:21:43;16.60;64.50
31455;DHT22;18084;53.028;8.834;2023-05-10T13:24:10;16.70;45.90
31455;DHT22;18084;53.028;8.834;2023-05-10T13:26:36;16.70;40.20
31455;DHT22;18084;53.028;8.834;2023-05-10T13:29:03;16.70;24.60
31455;DHT22;18084;53.028;8.834;2023-05-10T13:31:28;16.90;50.60
31455;DHT22;18084;53.028;8.834;2023-05-10T13:33:55;16.80;27.00
31455;DHT22;18084;53.028;8.834;2023-05-10T13:36:21;16.70;21.70
31455;DHT22;18084;53.028;8.834;2023-05-10T13:38:48;16.60;47.90
31455;DHT22;18084;53.028;8.834;2023-05-10T13:41:13;16.70;59.90
31455;DHT22;18084;53.028;8.834;2023-05-10T13:43:39;16.50;32.50
31455;DHT22;18084;53.028;8.834;2023-05-10T13:46:04;16.70;60.40
31455;DHT22;18084;53.028;8.834;2023-05-10T13:48:31;16.60;51.50
31455;DHT22;18084;53.028;8.834;2023-05-10T13:50:57;16.60;49.00
31455;DHT22;18084;53.028;8.834;2023-05-10T13:53:22;16.60;50.70
31455;DHT22;18084;53.028;8.834;2023-05-10T13:55:49;16.60;27.50
31455;DHT22;18084;53.028;8.834;2023-05-10T13:58:15;16.70;22.70
31455;DHT22;18084;53.028;8.834;2023-05-10T14:00:42;16.60;1.00
31455;DHT22;18084;53.028;8.834;2023-05-10T14:03:07;16.60;15.40
31455;DHT22;18084;53.028;8.834;2023-05-10T14:05:36;16.70;2.00
31455;DHT22;18084;53.028;8.834;2023-05-10T14:08:03;16.80;1.00
31455;DHT22;18084;53.028;8.834;2023-05-10T14:10:32;16.90;1.00
31455;DHT22;18084;53.028;8.834;2023-05-10T14:12:57;17.00;1.00
31455;DHT22;18084;53.028;8.834;2023-05-10T14:15:23;17.00;1.00
31455;DHT22;18084;53.028;8.834;2023-05-10T14:17:49;17.30;1.00
31455;DHT22;18084;53.028;8.834;2023-05-10T14:20:14;17.40;1.00
31455;DHT22;18084;53.028;8.834;2023-05-10T14:22:41;17.70;1.00
31455;DHT22;18084;53.028;8.834;2023-05-10T14:25:07;18.00;1.00
31455;DHT22;18084;53.028;8.834;2023-05-10T14:27:34;18.10;1.00
31455;DHT22;18084;53.028;8.834;2023-05-10T14:30:00;18.00;1.00
31455;DHT22;18084;53.028;8.834;2023-05-10T14:32:26;17.90;1.00
31455;DHT22;18084;53.028;8.834;2023-05-10T14:34:52;18.00;1.00
31455;DHT22;18084;53.028;8.834;2023-05-10T14:37:18;17.90;1.00
31455;DHT22;18084;53.028;8.834;2023-05-10T14:39:43;18.10;1.00
31455;DHT22;18084;53.028;8.834;2023-05-10T14:42:09;18.30;1.00
31455;DHT22;18084;53.028;8.834;2023-05-10T14:44:34;18.30;1.00
31455;DHT22;18084;53.028;8.834;2023-05-10T14:47:00;18.60;99.90
31455;DHT22;18084;53.028;8.834;2023-05-10T14:49:25;18.50;99.90
31455;DHT22;18084;53.028;8.834;2023-05-10T14:51:51;18.70;99.90
31455;DHT22;18084;53.028;8.834;2023-05-10T14:54:17;19.10;99.90
31455;DHT22;18084;53.028;8.834;2023-05-10T14:56:42;19.10;99.90
31455;DHT22;18084;53.028;8.834;2023-05-10T14:59:08;18.90;99.90
31455;DHT22;18084;53.028;8.834;2023-05-10T15:01:34;18.70;99.90
31455;DHT22;18084;53.028;8.834;2023-05-10T15:04:05;18.60;99.90
31455;DHT22;18084;53.028;8.834;2023-05-10T15:06:31;18.40;99.90
31455;DHT22;18084;53.028;8.834;2023-05-10T15:08:57;18.40;99.90
31455;DHT22;18084;53.028;8.834;2023-05-10T15:11:22;18.30;99.90
31455;DHT22;18084;53.028;8.834;2023-05-10T15:13:48;19.30;99.90
31455;DHT22;18084;53.028;8.834;2023-05-10T15:16:14;18.20;99.90
31455;DHT22;18084;53.028;8.834;2023-05-10T15:18:39;18.20;99.90
31455;DHT22;18084;53.028;8.834;2023-05-10T15:21:06;18.20;99.90
31455;DHT22;18084;53.028;8.834;2023-05-10T15:23:32;18.20;99.90
31455;DHT22;18084;53.028;8.834;2023-05-10T15:25:58;18.10;99.90
31455;DHT22;18084;53.028;8.834;2023-05-10T15:28:23;18.20;99.90
31455;DHT22;18084;53.028;8.834;2023-05-10T15:30:49;18.10;99.90
31455;DHT22;18084;53.028;8.834;2023-05-10T15:33:15;18.20;99.90
31455;DHT22;18084;53.028;8.834;2023-05-10T15:35:40;18.10;99.90
31455;DHT22;18084;53.028;8.834;2023-05-10T15:38:06;18.40;99.90
31455;DHT22;18084;53.028;8.834;2023-05-10T15:40:32;18.50;99.90
31455;DHT22;18084;53.028;8.834;2023-05-10T15:42:58;18.60;99.90
31455;DHT22;18084;53.028;8.834;2023-05-10T15:45:23;18.60;99.90
31455;DHT22;18084;53.028;8.834;2023-05-10T15:47:48;18.50;99.90
31455;DHT22;18084;53.028;8.834;2023-05-10T15:50:15;18.60;99.90
31455;DHT22;18084;53.028;8.834;2023-05-10T15:52:41;18.50;99.90
31455;DHT22;18084;53.028;8.834;2023-05-10T15:55:07;18.40;99.90
31455;DHT22;18084;53.028;8.834;2023-05-10T15:57:38;18.00;99.90
31455;DHT22;18084;53.028;8.834;2023-05-10T16:00:10;17.90;99.90
31455;DHT22;18084;53.028;8.834;2023-05-10T16:02:40;17.70;99.90
31455;DHT22;18084;53.028;8.834;2023-05-10T16:05:06;17.60;99.90
31455;DHT22;18084;53.028;8.834;2023-05-10T16:07:34;17.60;99.90
31455;DHT22;18084;53.028;8.834;2023-05-10T16:09:59;17.50;99.90
31455;DHT22;18084;53.028;8.834;2023-05-10T16:12:29;17.40;1.00
31455;DHT22;18084;53.028;8.834;2023-05-10T16:14:56;17.40;99.90
31455;DHT22;18084;53.028;8.834;2023-05-10T16:17:21;17.60;99.90
31455;DHT22;18084;53.028;8.834;2023-05-10T16:19:47;17.60;99.90
31455;DHT22;18084;53.028;8.834;2023-05-10T16:22:14;18.20;99.90
31455;DHT22;18084;53.028;8.834;2023-05-10T16:24:40;18.10;99.90
31455;DHT22;18084;53.028;8.834;2023-05-10T16:27:06;18.30;99.90
31455;DHT22;18084;53.028;8.834;2023-05-10T16:29:32;18.40;99.90
31455;DHT22;18084;53.028;8.834;2023-05-10T16:31:57;18.40;99.90
31455;DHT22;18084;53.028;8.834;2023-05-10T16:34:23;18.20;99.90
31455;DHT22;18084;53.028;8.834;2023-05-10T16:36:49;18.20;99.90
31455;DHT22;18084;53.028;8.834;2023-05-10T16:39:15;18.20;99.90
31455;DHT22;18084;53.028;8.834;2023-05-10T16:41:41;18.10;99.90
31455;DHT22;18084;53.028;8.834;2023-05-10T16:44:07;18.00;99.90
31455;DHT22;18084;53.028;8.834;2023-05-10T16:46:32;18.20;99.90
31455;DHT22;18084;53.028;8.834;2023-05-10T16:48:58;18.10;99.90
31455;DHT22;18084;53.028;8.834;2023-05-10T16:51:25;18.30;99.90
31455;DHT22;18084;53.028;8.834;2023-05-10T16:53:51;18.40;99.90
31455;DHT22;18084;53.028;8.834;2023-05-10T16:56:17;18.70;99.90
31455;DHT22;18084;53.028;8.834;2023-05-10T16:58:42;18.90;1.00
31455;DHT22;18084;53.028;8.834;2023-05-10T17:01:08;19.10;99.90
31455;DHT22;18084;53.028;8.834;2023-05-10T17:03:34;19.00;99.90
31455;DHT22;18084;53.028;8.834;2023-05-10T17:05:59;18.80;1.00
31455;DHT22;18084;53.028;8.834;2023-05-10T17:08:25;18.70;99.90
31455;DHT22;18084;53.028;8.834;2023-05-10T17:10:50;18.40;99.90
31455;DHT22;18084;53.028;8.834;2023-05-10T17:13:16;18.30;99.90
31455;DHT22;18084;53.028;8.834;2023-05-10T17:15:42;18.20;99.90
31455;DHT22;18084;53.028;8.834;2023-05-10T17:18:09;18.00;99.90
31455;DHT22;18084;53.028;8.834;2023-05-10T17:20:35;17.90;99.90
31455;DHT22;18084;53.028;8.834;2023-05-10T17:23:00;17.90;99.90
31455;DHT22;18084;53.028;8.834;2023-05-10T17:25:27;17.80;99.90
31455;DHT22;18084;53.028;8.834;2023-05-10T17:27:53;17.90;99.90
31455;DHT22;18084;53.028;8.834;2023-05-10T17:30:19;17.90;99.90
31455;DHT22;18084;53.028;8.834;2023-05-10T17:32:50;18.00;99.90
31455;DHT22;18084;53.028;8.834;2023-05-10T17:35:16;17.80;99.90
31455;DHT22;18084;53.028;8.834;2023-05-10T17:37:41;17.60;1.00
31455;DHT22;18084;53.028;8.834;2023-05-10T17:40:09;17.70;56.00
31455;DHT22;18084;53.028;8.834;2023-05-10T17:42:34;17.60;48.50
31455;DHT22;18084;53.028;8.834;2023-05-10T17:45:03;17.60;99.90
31455;DHT22;18084;53.028;8.834;2023-05-10T17:47:32;17.50;99.90
31455;DHT22;18084;53.028;8.834;2023-05-10T17:49:58;17.40;99.90
31455;DHT22;18084;53.028;8.834;2023-05-10T17:52:24;17.40;99.90
31455;DHT22;18084;53.028;8.834;2023-05-10T17:54:50;17.90;99.90
31455;DHT22;18084;53.028;8.834;2023-05-10T17:57:15;19.40;1.00
31455;DHT22;18084;53.028;8.834;2023-05-10T17:59:41;17.60;1.00
31455;DHT22;18084;53.028;8.834;2023-05-10T18:02:07;17.40;1.00
31455;DHT22;18084;53.028;8.834;2023-05-10T18:04:32;17.40;1.00
31455;DHT22;18084;53.028;8.834;2023-05-10T18:06:58;17.40;1.00
31455;DHT22;18084;53.028;8.834;2023-05-10T18:09:28;17.40;99.90
31455;DHT22;18084;53.028;8.834;2023-05-10T18:11:54;17.40;99.90
31455;DHT22;18084;53.028;8.834;2023-05-10T18:14:20;17.20;99.90
31455;DHT22;18084;53.028;8.834;2023-05-10T18:16:47;17.20;99.90
31455;DHT22;18084;53.028;8.834;2023-05-10T18:19:12;17.10;99.90
31455;DHT22;18084;53.028;8.834;2023-05-10T18:21:38;17.40;99.90
31455;DHT22;18084;53.028;8.834;2023-05-10T18:24:04;17.00;99.90
31455;DHT22;18084;53.028;8.834;2023-05-10T18:26:30;17.00;99.90
31455;DHT22;18084;53.028;8.834;2023-05-10T18:28:55;17.00;99.90
31455;DHT22;18084;53.028;8.834;2023-05-10T18:31:21;16.90;99.90
31455;DHT22;18084;53.028;8.834;2023-05-10T18:33:47;16.70;99.90
31455;DHT22;18084;53.028;8.834;2023-05-10T18:36:13;16.70;99.90
31455;DHT22;18084;53.028;8.834;2023-05-10T18:38:38;16.60;1.00
31455;DHT22;18084;53.028;8.834;2023-05-10T18:41:05;17.90;1.00
31455;DHT22;18084;53.028;8.834;2023-05-10T18:43:30;16.60;1.00
31455;DHT22;18084;53.028;8.834;2023-05-10T18:46:00;16.50;1.00
31455;DHT22;18084;53.028;8.834;2023-05-10T18:48:25;16.30;1.00
31455;DHT22;18084;53.028;8.834;2023-05-10T18:50:51;18.10;1.00
31455;DHT22;18084;53.028;8.834;2023-05-10T18:53:17;16.20;1.00
31455;DHT22;18084;53.028;8.834;2023-05-10T18:55:42;16.10;1.00
31455;DHT22;18084;53.028;8.834;2023-05-10T18:58:08;16.30;1.00
31455;DHT22;18084;53.028;8.834;2023-05-10T19:00:33;15.90;1.00
31455;DHT22;18084;53.028;8.834;2023-05-10T19:02:59;16.00;1.00
31455;DHT22;18084;53.028;8.834;2023-05-10T19:05:25;15.80;1.00
31455;DHT22;18084;53.028;8.834;2023-05-10T19:07:54;15.80;1.00
31455;DHT22;18084;53.028;8.834;2023-05-10T19:10:20;16.70;1.00
31455;DHT22;18084;53.028;8.834;2023-05-10T19:12:46;15.70;1.00
31455;DHT22;18084;53.028;8.834;2023-05-10T19:15:11;15.60;3.20
31455;DHT22;18084;53.028;8.834;2023-05-10T19:17:37;15.60;17.80
31455;DHT22;18084;53.028;8.834;2023-05-10T19:20:04;15.60;21.40
31455;DHT22;18084;53.028;8.834;2023-05-10T19:22:30;15.50;35.80
31455;DHT22;18084;53.028;8.834;2023-05-10T19:24:55;15.50;46.60
31455;DHT22;18084;53.028;8.834;2023-05-10T19:27:21;15.40;56.50
31455;DHT22;18084;53.028;8.834;2023-05-10T19:29:46;15.20;58.30
31455;DHT22;18084;53.028;8.834;2023-05-10T19:32:12;15.20;45.30
31455;DHT22;18084;53.028;8.834;2023-05-10T19:34:37;16.60;55.10
31455;DHT22;18084;53.028;8.834;2023-05-10T19:37:03;15.10;64.60
31455;DHT22;18084;53.028;8.834;2023-05-10T19:39:28;15.10;61.90
31455;DHT22;18084;53.028;8.834;2023-05-10T19:41:56;15.10;58.50
31455;DHT22;18084;53.028;8.834;2023-05-10T19:44:22;15.00;59.40
31455;DHT22;18084;53.028;8.834;2023-05-10T19:46:47;16.80;63.60
31455;DHT22;18084;53.028;8.834;2023-05-10T19:49:13;15.00;57.20
31455;DHT22;18084;53.028;8.834;2023-05-10T19:51:38;15.50;55.60
31455;DHT22;18084;53.028;8.834;2023-05-10T19:54:04;14.80;55.30
31455;DHT22;18084;53.028;8.834;2023-05-10T19:56:29;14.90;60.70
31455;DHT22;18084;53.028;8.834;2023-05-10T19:58:55;14.90;68.50
31455;DHT22;18084;53.028;8.834;2023-05-10T20:01:20;14.70;61.90
31455;DHT22;18084;53.028;8.834;2023-05-10T20:03:46;14.60;63.50
31455;DHT22;18084;53.028;8.834;2023-05-10T20:06:11;14.60;67.80
31455;DHT22;18084;53.028;8.834;2023-05-10T20:08:37;14.50;76.10
31455;DHT22;18084;53.028;8.834;2023-05-10T20:11:03;14.50;86.40
31455;DHT22;18084;53.028;8.834;2023-05-10T20:13:29;14.50;83.70
31455;DHT22;18084;53.028;8.834;2023-05-10T20:15:55;14.50;90.10
31455;DHT22;18084;53.028;8.834;2023-05-10T20:18:21;14.50;90.50
31455;DHT22;18084;53.028;8.834;2023-05-10T20:20:47;14.40;90.10
31455;DHT22;18084;53.028;8.834;2023-05-10T20:23:12;14.40;87.80
31455;DHT22;18084;53.028;8.834;2023-05-10T20:25:39;14.30;94.30
31455;DHT22;18084;53.028;8.834;2023-05-10T20:28:04;14.20;95.80
31455;DHT22;18084;53.028;8.834;2023-05-10T20:30:32;14.30;98.30
31455;DHT22;18084;53.028;8.834;2023-05-10T20:32:57;14.60;98.40
31455;DHT22;18084;53.028;8.834;2023-05-10T20:35:23;14.30;95.20
31455;DHT22;18084;53.028;8.834;2023-05-10T20:37:48;14.30;99.50
31455;DHT22;18084;53.028;8.834;2023-05-10T20:40:14;14.20;98.40
31455;DHT22;18084;53.028;8.834;2023-05-10T20:42:39;14.10;99.70
31455;DHT22;18084;53.028;8.834;2023-05-10T20:45:05;14.10;99.90
31455;DHT22;18084;53.028;8.834;2023-05-10T20:47:31;14.10;99.90
31455;DHT22;18084;53.028;8.834;2023-05-10T20:49:57;14.10;99.90
31455;DHT22;18084;53.028;8.834;2023-05-10T20:52:23;14.80;99.90
31455;DHT22;18084;53.028;8.834;2023-05-10T20:54:48;14.10;99.90
31455;DHT22;18084;53.028;8.834;2023-05-10T20:57:13;14.50;99.90
31455;DHT22;18084;53.028;8.834;2023-05-10T20:59:39;14.00;99.90
31455;DHT22;18084;53.028;8.834;2023-05-10T21:02:05;13.90;99.90
31455;DHT22;18084;53.028;8.834;2023-05-10T21:04:31;13.90;99.90
31455;DHT22;18084;53.028;8.834;2023-05-10T21:06:56;15.40;99.90
31455;DHT22;18084;53.028;8.834;2023-05-10T21:09:22;13.80;99.90
31455;DHT22;18084;53.028;8.834;2023-05-10T21:11:48;13.80;99.90
31455;DHT22;18084;53.028;8.834;2023-05-10T21:14:14;13.80;99.90
31455;DHT22;18084;53.028;8.834;2023-05-10T21:16:39;13.70;99.90
31455;DHT22;18084;53.028;8.834;2023-05-10T21:19:04;13.70;99.90
31455;DHT22;18084;53.028;8.834;2023-05-10T21:21:31;13.70;99.90
31455;DHT22;18084;53.028;8.834;2023-05-10T21:23:57;13.70;99.90
31455;DHT22;18084;53.028;8.834;2023-05-10T21:26:22;13.60;99.90
31455;DHT22;18084;53.028;8.834;2023-05-10T21:28:48;13.60;99.90
31455;DHT22;18084;53.028;8.834;2023-05-10T21:31:13;13.60;99.90
31455;DHT22;18084;53.028;8.834;2023-05-10T21:33:39;13.50;99.90
31455;DHT22;18084;53.028;8.834;2023-05-10T21:36:06;13.50;99.90
31455;DHT22;18084;53.028;8.834;2023-05-10T21:38:32;13.50;99.90
31455;DHT22;18084;53.028;8.834;2023-05-10T21:40:57;13.40;99.90
31455;DHT22;18084;53.028;8.834;2023-05-10T21:43:23;13.40;99.90
31455;DHT22;18084;53.028;8.834;2023-05-10T21:45:48;13.40;99.90
